sensor_id;sensor_type;location;lat;lon;timestamp;P1;durP1;ratioP1;P2;durP2;ratioP2
59314;SDS011;46521;50.160;20.802;2023-09-30T00:02:56;22.68;;;14.18;;
59314;SDS011;46521;50.160;20.802;2023-09-30T00:12:58;19.55;;;15.03;;
59314;SDS011;46521;50.160;20.802;2023-09-30T00:23:00;24.03;;;15.87;;
59314;SDS011;46521;50.160;20.802;2023-09-30T00:33:01;21.20;;;15.18;;
59314;SDS011;46521;50.160;20.802;2023-09-30T00:43:02;20.98;;;14.75;;
59314;SDS011;46521;50.160;20.802;2023-09-30T00:53:04;18.93;;;15.05;;
59314;SDS011;46521;50.160;20.802;2023-09-30T01:03:06;21.10;;;16.20;;
59314;SDS011;46521;50.160;20.802;2023-09-30T01:13:08;18.85;;;14.08;;
59314;SDS011;46521;50.160;20.802;2023-09-30T01:23:10;19.53;;;14.73;;
59314;SDS011;46521;50.160;20.802;2023-09-30T01:33:12;19.95;;;14.50;;
59314;SDS011;46521;50.160;20.802;2023-09-30T01:43:15;17.40;;;13.47;;
59314;SDS011;46521;50.160;20.802;2023-09-30T01:53:17;18.67;;;14.37;;
59314;SDS011;46521;50.160;20.802;2023-09-30T02:03:18;17.85;;;13.98;;
59314;SDS011;46521;50.160;20.802;2023-09-30T02:13:20;17.65;;;13.13;;
59314;SDS011;46521;50.160;20.802;2023-09-30T02:23:21;18.25;;;13.38;;
59314;SDS011;46521;50.160;20.802;2023-09-30T02:33:23;16.55;;;12.85;;
59314;SDS011;46521;50.160;20.802;2023-09-30T02:43:26;20.48;;;14.00;;
59314;SDS011;46521;50.160;20.802;2023-09-30T02:53:28;18.23;;;12.53;;
59314;SDS011;46521;50.160;20.802;2023-09-30T03:03:29;17.27;;;13.13;;
59314;SDS011;46521;50.160;20.802;2023-09-30T03:13:31;18.53;;;12.63;;
59314;SDS011;46521;50.160;20.802;2023-09-30T03:23:33;16.73;;;12.43;;
59314;SDS011;46521;50.160;20.802;2023-09-30T03:33:35;17.45;;;13.15;;
59314;SDS011;46521;50.160;20.802;2023-09-30T03:43:38;15.83;;;11.28;;
59314;SDS011;46521;50.160;20.802;2023-09-30T03:53:42;17.80;;;12.40;;
59314;SDS011;46521;50.160;20.802;2023-09-30T04:03:44;19.03;;;13.08;;
59314;SDS011;46521;50.160;20.802;2023-09-30T04:13:45;15.83;;;11.50;;
59314;SDS011;46521;50.160;20.802;2023-09-30T04:23:47;15.45;;;11.58;;
59314;SDS011;46521;50.160;20.802;2023-09-30T04:33:49;16.15;;;12.15;;
59314;SDS011;46521;50.160;20.802;2023-09-30T04:43:52;17.38;;;11.33;;
59314;SDS011;46521;50.160;20.802;2023-09-30T04:53:53;21.15;;;12.33;;
59314;SDS011;46521;50.160;20.802;2023-09-30T05:04:00;17.10;;;11.68;;
59314;SDS011;46521;50.160;20.802;2023-09-30T05:14:01;16.50;;;11.68;;
59314;SDS011;46521;50.160;20.802;2023-09-30T05:24:06;16.88;;;11.68;;
59314;SDS011;46521;50.160;20.802;2023-09-30T05:34:07;17.45;;;11.38;;
59314;SDS011;46521;50.160;20.802;2023-09-30T05:44:09;18.58;;;12.05;;
59314;SDS011;46521;50.160;20.802;2023-09-30T05:54:11;16.85;;;10.60;;
59314;SDS011;46521;50.160;20.802;2023-09-30T06:04:12;14.95;;;10.08;;
59314;SDS011;46521;50.160;20.802;2023-09-30T06:14:14;15.38;;;10.23;;
59314;SDS011;46521;50.160;20.802;2023-09-30T06:24:15;17.98;;;11.23;;
59314;SDS011;46521;50.160;20.802;2023-09-30T06:34:17;18.55;;;11.18;;
59314;SDS011;46521;50.160;20.802;2023-09-30T06:44:18;14.98;;;11.18;;
59314;SDS011;46521;50.160;20.802;2023-09-30T06:54:20;15.03;;;11.03;;
59314;SDS011;46521;50.160;20.802;2023-09-30T07:04:21;19.33;;;13.33;;
59314;SDS011;46521;50.160;20.802;2023-09-30T07:14:23;16.40;;;12.23;;
59314;SDS011;46521;50.160;20.802;2023-09-30T07:24:24;17.73;;;12.27;;
59314;SDS011;46521;50.160;20.802;2023-09-30T07:34:26;16.20;;;10.85;;
59314;SDS011;46521;50.160;20.802;2023-09-30T07:44:27;16.15;;;10.63;;
59314;SDS011;46521;50.160;20.802;2023-09-30T07:54:29;14.57;;;10.27;;
59314;SDS011;46521;50.160;20.802;2023-09-30T08:04:30;14.65;;;11.38;;
59314;SDS011;46521;50.160;20.802;2023-09-30T08:14:32;15.18;;;11.38;;
59314;SDS011;46521;50.160;20.802;2023-09-30T08:24:33;16.70;;;11.65;;
59314;SDS011;46521;50.160;20.802;2023-09-30T08:34:35;17.75;;;12.85;;
59314;SDS011;46521;50.160;20.802;2023-09-30T08:44:39;16.70;;;11.93;;
59314;SDS011;46521;50.160;20.802;2023-09-30T08:54:41;20.93;;;12.00;;
59314;SDS011;46521;50.160;20.802;2023-09-30T09:04:43;17.58;;;13.00;;
59314;SDS011;46521;50.160;20.802;2023-09-30T09:14:46;17.33;;;12.38;;
59314;SDS011;46521;50.160;20.802;2023-09-30T09:24:48;17.90;;;12.20;;
59314;SDS011;46521;50.160;20.802;2023-09-30T09:34:59;27.57;;;22.27;;
59314;SDS011;46521;50.160;20.802;2023-09-30T09:45:03;16.85;;;12.23;;
59314;SDS011;46521;50.160;20.802;2023-09-30T09:55:06;19.10;;;12.35;;
59314;SDS011;46521;50.160;20.802;2023-09-30T10:05:09;19.23;;;13.03;;
59314;SDS011;46521;50.160;20.802;2023-09-30T10:25:33;16.97;;;13.57;;
59314;SDS011;46521;50.160;20.802;2023-09-30T10:55:45;17.35;;;13.30;;
59314;SDS011;46521;50.160;20.802;2023-09-30T11:05:50;20.03;;;14.33;;
59314;SDS011;46521;50.160;20.802;2023-09-30T11:16:04;18.70;;;14.45;;
59314;SDS011;46521;50.160;20.802;2023-09-30T11:26:06;21.28;;;15.10;;
59314;SDS011;46521;50.160;20.802;2023-09-30T11:36:07;20.00;;;15.20;;
59314;SDS011;46521;50.160;20.802;2023-09-30T11:46:10;21.97;;;16.53;;
59314;SDS011;46521;50.160;20.802;2023-09-30T11:56:14;22.25;;;17.20;;
59314;SDS011;46521;50.160;20.802;2023-09-30T12:06:16;22.03;;;17.13;;
59314;SDS011;46521;50.160;20.802;2023-09-30T12:16:17;21.77;;;17.33;;
59314;SDS011;46521;50.160;20.802;2023-09-30T12:26:19;22.45;;;17.85;;
59314;SDS011;46521;50.160;20.802;2023-09-30T12:36:21;23.23;;;19.30;;
59314;SDS011;46521;50.160;20.802;2023-09-30T12:46:23;25.68;;;20.00;;
59314;SDS011;46521;50.160;20.802;2023-09-30T12:56:25;26.53;;;20.13;;
59314;SDS011;46521;50.160;20.802;2023-09-30T13:06:27;21.13;;;16.63;;
59314;SDS011;46521;50.160;20.802;2023-09-30T13:16:34;17.05;;;13.78;;
59314;SDS011;46521;50.160;20.802;2023-09-30T13:26:36;18.25;;;14.05;;
59314;SDS011;46521;50.160;20.802;2023-09-30T13:36:37;15.90;;;13.05;;
59314;SDS011;46521;50.160;20.802;2023-09-30T13:46:40;16.13;;;12.13;;
59314;SDS011;46521;50.160;20.802;2023-09-30T13:56:43;13.60;;;11.20;;
59314;SDS011;46521;50.160;20.802;2023-09-30T14:06:49;12.78;;;9.65;;
59314;SDS011;46521;50.160;20.802;2023-09-30T14:16:51;12.30;;;9.20;;
59314;SDS011;46521;50.160;20.802;2023-09-30T14:26:53;14.20;;;9.33;;
59314;SDS011;46521;50.160;20.802;2023-09-30T14:36:57;14.70;;;11.08;;
59314;SDS011;46521;50.160;20.802;2023-09-30T14:46:58;17.37;;;12.30;;
59314;SDS011;46521;50.160;20.802;2023-09-30T14:57:02;21.30;;;14.50;;
59314;SDS011;46521;50.160;20.802;2023-09-30T15:07:04;17.80;;;12.70;;
59314;SDS011;46521;50.160;20.802;2023-09-30T15:17:05;15.10;;;9.60;;
59314;SDS011;46521;50.160;20.802;2023-09-30T15:27:07;14.33;;;9.18;;
59314;SDS011;46521;50.160;20.802;2023-09-30T15:37:09;13.30;;;8.55;;
59314;SDS011;46521;50.160;20.802;2023-09-30T15:47:11;14.90;;;9.07;;
59314;SDS011;46521;50.160;20.802;2023-09-30T15:57:13;13.70;;;7.90;;
59314;SDS011;46521;50.160;20.802;2023-09-30T16:07:14;14.05;;;6.68;;
59314;SDS011;46521;50.160;20.802;2023-09-30T16:17:16;11.05;;;5.98;;
59314;SDS011;46521;50.160;20.802;2023-09-30T16:27:18;10.20;;;5.95;;
59314;SDS011;46521;50.160;20.802;2023-09-30T16:37:19;10.00;;;5.65;;
59314;SDS011;46521;50.160;20.802;2023-09-30T16:47:21;10.75;;;5.80;;
59314;SDS011;46521;50.160;20.802;2023-09-30T16:57:22;8.10;;;4.95;;
59314;SDS011;46521;50.160;20.802;2023-09-30T17:07:25;10.08;;;5.28;;
59314;SDS011;46521;50.160;20.802;2023-09-30T17:17:28;9.28;;;5.25;;
59314;SDS011;46521;50.160;20.802;2023-09-30T17:27:30;9.70;;;5.28;;
59314;SDS011;46521;50.160;20.802;2023-09-30T17:37:32;10.85;;;6.23;;
59314;SDS011;46521;50.160;20.802;2023-09-30T17:47:35;10.58;;;4.45;;
59314;SDS011;46521;50.160;20.802;2023-09-30T17:57:37;9.70;;;5.10;;
59314;SDS011;46521;50.160;20.802;2023-09-30T18:07:40;9.53;;;5.50;;
59314;SDS011;46521;50.160;20.802;2023-09-30T18:17:43;10.23;;;5.33;;
59314;SDS011;46521;50.160;20.802;2023-09-30T18:27:45;10.20;;;5.13;;
59314;SDS011;46521;50.160;20.802;2023-09-30T18:37:46;10.83;;;4.88;;
59314;SDS011;46521;50.160;20.802;2023-09-30T18:47:48;10.53;;;4.85;;
59314;SDS011;46521;50.160;20.802;2023-09-30T18:57:51;9.78;;;4.60;;
59314;SDS011;46521;50.160;20.802;2023-09-30T19:07:52;14.48;;;5.78;;
59314;SDS011;46521;50.160;20.802;2023-09-30T19:17:54;10.13;;;4.87;;
59314;SDS011;46521;50.160;20.802;2023-09-30T19:27:56;10.23;;;5.80;;
59314;SDS011;46521;50.160;20.802;2023-09-30T19:37:58;11.58;;;5.45;;
59314;SDS011;46521;50.160;20.802;2023-09-30T19:47:59;11.78;;;5.68;;
59314;SDS011;46521;50.160;20.802;2023-09-30T19:58:01;10.55;;;5.15;;
59314;SDS011;46521;50.160;20.802;2023-09-30T20:08:05;14.63;;;5.68;;
59314;SDS011;46521;50.160;20.802;2023-09-30T20:18:09;13.85;;;6.25;;
59314;SDS011;46521;50.160;20.802;2023-09-30T20:28:11;15.13;;;7.18;;
59314;SDS011;46521;50.160;20.802;2023-09-30T20:38:16;11.98;;;7.00;;
59314;SDS011;46521;50.160;20.802;2023-09-30T20:48:19;13.48;;;6.83;;
59314;SDS011;46521;50.160;20.802;2023-09-30T20:58:20;10.83;;;5.78;;
59314;SDS011;46521;50.160;20.802;2023-09-30T21:08:22;12.83;;;6.00;;
59314;SDS011;46521;50.160;20.802;2023-09-30T21:18:24;11.10;;;5.83;;
59314;SDS011;46521;50.160;20.802;2023-09-30T21:28:25;14.85;;;6.85;;
59314;SDS011;46521;50.160;20.802;2023-09-30T21:38:30;13.13;;;6.77;;
59314;SDS011;46521;50.160;20.802;2023-09-30T21:48:32;12.20;;;6.00;;
59314;SDS011;46521;50.160;20.802;2023-09-30T21:58:34;12.50;;;5.40;;
59314;SDS011;46521;50.160;20.802;2023-09-30T22:08:36;13.75;;;6.00;;
59314;SDS011;46521;50.160;20.802;2023-09-30T22:18:39;13.10;;;6.15;;
59314;SDS011;46521;50.160;20.802;2023-09-30T22:28:41;13.95;;;6.45;;
59314;SDS011;46521;50.160;20.802;2023-09-30T22:38:43;12.43;;;6.15;;
59314;SDS011;46521;50.160;20.802;2023-09-30T22:48:45;13.97;;;6.80;;
59314;SDS011;46521;50.160;20.802;2023-09-30T22:58:46;14.13;;;6.90;;
59314;SDS011;46521;50.160;20.802;2023-09-30T23:08:48;12.55;;;6.13;;
59314;SDS011;46521;50.160;20.802;2023-09-30T23:18:50;13.55;;;6.75;;
59314;SDS011;46521;50.160;20.802;2023-09-30T23:28:52;13.37;;;7.77;;
59314;SDS011;46521;50.160;20.802;2023-09-30T23:38:55;11.80;;;6.77;;
59314;SDS011;46521;50.160;20.802;2023-09-30T23:48:56;11.43;;;6.95;;
59314;SDS011;46521;50.160;20.802;2023-09-30T23:58:58;14.08;;;7.45;;
